Time,TemperatureF,DewpointF,PressureIn,WindDirection,WindDirectionDegrees,WindSpeedMPH,WindSpeedGustMPH,Humidity,HourlyPrecipIn,Conditions,Clouds,dailyrainin,SoftwareType,DateUTC
2013-07-31 00:42:00,57.0,55.0,30.18,North,0,0.0,-999.0,93,-99.99,,,-99.99,,2013-07-31 04:42:00,
2013-07-31 00:52:00,57.0,55.0,30.18,North,0,0.0,-999.0,93,-99.99,,,-99.99,,2013-07-31 04:52:00,
2013-07-31 01:02:00,57.0,55.0,30.18,North,0,0.0,-999.0,93,-99.99,,,-99.99,,2013-07-31 05:02:00,
2013-07-31 01:12:00,55.0,55.0,30.18,North,0,0.0,-999.0,100,-99.99,,,-99.99,,2013-07-31 05:12:00,
2013-07-31 01:22:00,55.0,54.0,30.18,North,0,0.0,-999.0,93,-99.99,,,-99.99,,2013-07-31 05:22:00,
2013-07-31 01:32:00,55.0,54.0,30.18,North,0,0.0,-999.0,93,-99.99,,,-99.99,,2013-07-31 05:32:00,
2013-07-31 01:42:00,55.0,54.0,30.18,North,0,0.0,-999.0,93,-99.99,,,-99.99,,2013-07-31 05:42:00,
2013-07-31 01:52:00,55.0,54.0,30.18,North,0,0.0,-999.0,93,-99.99,,,-99.99,,2013-07-31 05:52:00,
2013-07-31 02:02:00,55.0,54.0,30.18,North,0,0.0,-999.0,93,-99.99,,,-99.99,,2013-07-31 06:02:00,
2013-07-31 02:43:00,55.0,55.0,30.18,North,0,0.0,-999.0,100,-99.99,,,-99.99,,2013-07-31 06:43:00,
2013-07-31 03:43:00,55.0,55.0,30.17,North,0,0.0,-999.0,100,-99.99,,,-99.99,,2013-07-31 07:43:00,
2013-07-31 04:12:00,55.0,54.0,30.17,North,0,0.0,-999.0,93,-99.99,,,-99.99,,2013-07-31 08:12:00,
2013-07-31 04:42:00,55.0,54.0,30.18,North,0,0.0,-999.0,93,-99.99,,,-99.99,,2013-07-31 08:42:00,
2013-07-31 06:12:00,55.0,54.0,30.19,North,0,0.0,-999.0,93,-99.99,,,-99.99,,2013-07-31 10:12:00,
2013-07-31 08:22:00,57.0,55.0,30.19,North,0,0.0,-999.0,93,-99.99,,,-99.99,,2013-07-31 12:22:00,
2013-07-31 08:33:00,57.0,55.0,30.19,North,0,0.0,-999.0,93,-99.99,,,-99.99,,2013-07-31 12:33:00,
2013-07-31 08:52:00,59.0,57.0,30.19,North,0,0.0,-999.0,93,-99.99,,,-99.99,,2013-07-31 12:52:00,
2013-07-31 09:22:00,61.0,59.0,30.19,SSE,150,3.0,-999.0,93,-99.99,,,-99.99,,2013-07-31 13:22:00,
2013-07-31 10:43:00,72.0,61.0,30.17,North,0,0.0,-999.0,68,-99.99,,,-99.99,,2013-07-31 14:43:00,
2013-07-31 11:12:00,73.0,57.0,30.17,North,0,0.0,-999.0,56,-99.99,,,-99.99,,2013-07-31 15:12:00,
2013-07-31 11:43:00,73.0,55.0,30.17,South,180,3.0,-999.0,53,-99.99,,,-99.99,,2013-07-31 15:43:00,
2013-07-31 14:43:00,77.0,57.0,30.12,North,0,0.0,-999.0,50,-99.99,,,-99.99,,2013-07-31 18:43:00,
2013-07-31 15:43:00,79.0,55.0,30.10,North,0,0.0,-999.0,44,-99.99,,,-99.99,,2013-07-31 19:43:00,
2013-07-31 16:12:00,77.0,55.0,30.09,North,0,0.0,-999.0,47,-99.99,,,-99.99,,2013-07-31 20:12:00,
2013-07-31 18:13:00,77.0,55.0,30.06,North,0,0.0,-999.0,47,-99.99,,,-99.99,,2013-07-31 22:13:00,
2013-07-31 19:42:00,72.0,63.0,30.05,North,0,0.0,-999.0,73,-99.99,,,-99.99,,2013-07-31 23:42:00,
2013-07-31 19:52:00,70.0,63.0,30.04,North,0,0.0,-999.0,77,-99.99,,,-99.99,,2013-07-31 23:52:00,
2013-07-31 20:03:00,70.0,63.0,30.04,North,0,0.0,-999.0,77,-99.99,,,-99.99,,2013-08-01 00:03:00,
2013-07-31 21:43:00,63.0,59.0,30.04,North,0,0.0,-999.0,88,-99.99,,,-99.99,,2013-08-01 01:43:00,
2013-07-31 22:52:00,61.0,59.0,30.04,North,0,0.0,-999.0,93,-99.99,,,-99.99,,2013-08-01 02:52:00,